Fox Creek, Colorado
Current Conditions -  °F | °C
As of 5:52 PM on Saturday 25 Oct 2014 (Local Time) from KALS Reporting Station
Clear Clear  
Wind Chill: 66°   Ceiling: Unl
Heat Index: 66°   Visibility: 10mi
Dew Point: 20°   Wind: 12mph
Humidity: 17%   Direction: 210°SSW
Pressure: 30.24"   Gusts: NA
Location:  37.1816°N, 106.262°W
Report Text: KALS 252352Z AUTO 21010KT 10SM CLR 19/M07 A3024 RMK AO2 SLP197 T01891067 10239 20150 56014
Loading
Personal Weather Stations






























Interactive Weather Map
Tropical Storm Tracking
New forecast layout! Learn more

10-Day Weather Forecast

Advertisements
Track Severe Weather on mobile